Kansas City, Missouri
Traffic Map
Current Weather Conditions
Kansas City, Missouri
Clear
Clear
55°
Feels Like: 55°
Wind Chill: 55° Ceiling: Unl
Heat Index: 55° Visibility: 10mi
Dew Point: 30° Wind: 22mph
Humidity: 38% Direction: 210° (SSW)
Pressure: 29.74in Gusts: 30mph
Raw Report DataKMKC 210354Z 21019G26KT 10SM CLR 13/M01 A2974 RMK AO2 PK WND 21026/0349 SLP069 T01281011
Traffic Incident Summary
Active as of:
Severity:
Category:
InformationThere was an issue retrieving the traffic information for this location. Please try a different location or try again shortly.
Advertisements